createdAt,value
2022-08-21T00:01:13.516Z,15.44
2022-08-21T00:03:44.808Z,15.50
2022-08-21T00:06:14.857Z,15.50
2022-08-21T00:08:45.093Z,15.50
2022-08-21T00:11:15.659Z,15.47
2022-08-21T00:13:45.315Z,15.38
2022-08-21T00:16:15.105Z,15.35
2022-08-21T00:18:46.348Z,15.36
2022-08-21T00:21:17.269Z,15.29
2022-08-21T00:23:46.904Z,15.24
2022-08-21T00:26:16.529Z,15.24
2022-08-21T00:28:47.048Z,15.18
2022-08-21T00:31:16.925Z,15.15
2022-08-21T00:33:48.249Z,15.12
2022-08-21T00:36:18.096Z,15.09
2022-08-21T00:38:47.629Z,15.06
2022-08-21T00:41:29.836Z,15.06
2022-08-21T00:44:09.095Z,15.00
2022-08-21T00:46:40.427Z,14.94
2022-08-21T00:49:14.889Z,14.94
2022-08-21T00:51:51.467Z,14.89
2022-08-21T00:54:23.396Z,14.83
2022-08-21T00:57:00.707Z,14.79
2022-08-21T00:59:37.160Z,14.77
2022-08-21T01:02:11.315Z,14.72
2022-08-21T01:04:42.772Z,14.77
2022-08-21T01:07:13.605Z,14.72
2022-08-21T01:09:44.584Z,14.71
2022-08-21T01:12:15.053Z,14.68
2022-08-21T01:14:45.686Z,14.65
2022-08-21T01:17:26.104Z,14.60
2022-08-21T01:20:00.421Z,14.57
2022-08-21T01:22:31.397Z,14.57
2022-08-21T01:25:00.889Z,14.57
2022-08-21T01:27:30.413Z,14.54
2022-08-21T01:30:11.453Z,14.56
2022-08-21T01:32:41.771Z,14.56
2022-08-21T01:35:13.241Z,14.52
2022-08-21T01:37:44.593Z,14.51
2022-08-21T01:40:18.283Z,14.55
2022-08-21T01:42:49.524Z,14.50
2022-08-21T01:45:19.592Z,14.45
2022-08-21T01:47:49.166Z,14.43
2022-08-21T01:50:22.438Z,14.42
2022-08-21T01:52:54.012Z,14.44
2022-08-21T01:55:25.513Z,14.41
2022-08-21T01:57:55.040Z,14.40
2022-08-21T02:00:25.745Z,14.39
2022-08-21T02:02:55.337Z,14.38
2022-08-21T02:05:24.893Z,14.38
2022-08-21T02:07:57.408Z,14.44
2022-08-21T02:10:32.622Z,14.41
2022-08-21T02:13:02.863Z,14.39
2022-08-21T02:15:33.373Z,14.35
2022-08-21T02:18:04.565Z,14.34
2022-08-21T02:20:40.104Z,14.32
2022-08-21T02:23:13.333Z,14.30
2022-08-21T02:25:43.632Z,14.31
2022-08-21T02:28:16.465Z,14.31
2022-08-21T02:30:50.185Z,14.25
2022-08-21T02:33:20.650Z,14.22
2022-08-21T02:35:51.496Z,14.22
2022-08-21T02:38:27.340Z,14.28
2022-08-21T02:41:00.200Z,14.22
2022-08-21T02:43:30.917Z,14.14
2022-08-21T02:46:01.334Z,14.12
2022-08-21T02:48:33.689Z,14.07
2022-08-21T02:51:06.693Z,14.03
2022-08-21T02:53:38.201Z,14.03
2022-08-21T02:56:11.819Z,13.98
2022-08-21T02:58:45.865Z,14.03
2022-08-21T03:01:16.592Z,14.01
2022-08-21T03:03:50.742Z,14.10
2022-08-21T03:06:25.496Z,14.10
2022-08-21T03:08:56.350Z,14.07
2022-08-21T03:11:27.428Z,14.02
2022-08-21T03:13:56.930Z,14.03
2022-08-21T03:16:26.474Z,13.97
2022-08-21T03:18:56.060Z,13.99
2022-08-21T03:21:25.511Z,13.98
2022-08-21T03:23:56.528Z,13.94
2022-08-21T03:26:27.898Z,13.99
2022-08-21T03:28:58.578Z,13.97
2022-08-21T03:31:31.692Z,13.99
2022-08-21T03:34:01.252Z,14.04
2022-08-21T03:36:30.747Z,14.07
2022-08-21T03:39:01.637Z,14.12
2022-08-21T03:41:31.222Z,14.15
2022-08-21T03:44:01.148Z,14.09
2022-08-21T03:46:30.856Z,14.09
2022-08-21T03:49:00.355Z,14.04
2022-08-21T03:51:30.850Z,14.01
2022-08-21T03:54:01.765Z,14.00
2022-08-21T03:56:31.375Z,14.05
2022-08-21T03:59:00.976Z,14.08
2022-08-21T04:01:30.537Z,14.17
2022-08-21T04:04:00.560Z,14.19
2022-08-21T04:06:33.460Z,14.18
2022-08-21T04:09:08.122Z,14.13
2022-08-21T04:11:37.761Z,14.18
2022-08-21T04:14:07.245Z,14.22
2022-08-21T04:16:36.837Z,14.17
2022-08-21T04:19:06.429Z,14.19
2022-08-21T04:21:38.661Z,14.12
2022-08-21T04:24:11.582Z,14.15
2022-08-21T04:26:41.372Z,14.15
2022-08-21T04:29:10.775Z,14.20
2022-08-21T04:31:40.395Z,14.19
2022-08-21T04:34:09.891Z,14.18
2022-08-21T04:36:39.523Z,14.16
2022-08-21T04:39:10.481Z,14.22
2022-08-21T04:41:40.433Z,14.18
2022-08-21T04:44:10.499Z,14.31
2022-08-21T04:46:40.069Z,14.27
2022-08-21T04:49:09.517Z,14.21
2022-08-21T04:51:41.348Z,14.22
2022-08-21T04:54:19.798Z,14.22
2022-08-21T04:56:56.826Z,14.26
2022-08-21T04:59:32.761Z,14.31
2022-08-21T05:02:03.528Z,14.35
2022-08-21T05:04:43.516Z,14.37
2022-08-21T05:07:19.388Z,14.40
2022-08-21T05:10:12.625Z,14.43
2022-08-21T05:12:44.284Z,14.38
2022-08-21T05:15:15.211Z,14.44
2022-08-21T05:17:55.439Z,14.40
2022-08-21T05:20:31.015Z,14.47
2022-08-21T05:23:00.690Z,14.46
2022-08-21T05:25:32.073Z,14.45
2022-08-21T05:28:05.262Z,14.48
2022-08-21T05:30:36.911Z,14.51
2022-08-21T05:33:09.160Z,14.52
2022-08-21T05:35:39.905Z,14.61
2022-08-21T05:38:16.624Z,14.64
2022-08-21T05:40:49.262Z,14.64
2022-08-21T05:43:18.904Z,14.67
2022-08-21T05:45:49.224Z,14.67
2022-08-21T05:48:23.173Z,14.74
2022-08-21T05:50:55.292Z,14.81
2022-08-21T05:53:27.256Z,14.89
2022-08-21T05:55:58.100Z,14.93
2022-08-21T05:58:27.844Z,15.08
2022-08-21T06:00:57.383Z,15.08
2022-08-21T06:03:30.893Z,15.17
2022-08-21T06:06:00.968Z,15.27
2022-08-21T06:08:31.508Z,15.32
2022-08-21T06:11:05.061Z,15.37
2022-08-21T06:13:35.713Z,15.39
2022-08-21T06:16:09.718Z,15.48
2022-08-21T06:18:40.904Z,15.54
2022-08-21T06:21:12.311Z,15.65
2022-08-21T06:23:42.161Z,15.73
2022-08-21T06:26:16.154Z,15.85
2022-08-21T06:28:46.135Z,15.95
2022-08-21T06:31:21.288Z,15.98
2022-08-21T06:33:51.527Z,16.07
2022-08-21T06:36:21.808Z,16.14
2022-08-21T06:38:51.865Z,16.24
2022-08-21T06:41:26.322Z,16.32
2022-08-21T06:43:57.542Z,16.42
2022-08-21T06:46:30.703Z,16.50
2022-08-21T06:49:00.851Z,16.59
2022-08-21T06:51:30.410Z,16.68
2022-08-21T06:54:00.049Z,16.74
2022-08-21T06:56:30.957Z,16.80
2022-08-21T06:59:01.160Z,16.89
2022-08-21T07:01:30.706Z,16.97
2022-08-21T07:04:00.837Z,17.03
2022-08-21T07:06:30.576Z,17.08
2022-08-21T07:09:04.491Z,17.14
2022-08-21T07:11:43.214Z,17.22
2022-08-21T07:14:20.122Z,17.27
2022-08-21T07:16:50.232Z,17.36
2022-08-21T07:19:20.564Z,17.48
2022-08-21T07:21:50.312Z,17.57
2022-08-21T07:24:19.859Z,17.69
2022-08-21T07:26:50.683Z,17.75
2022-08-21T07:29:20.200Z,17.76
2022-08-21T07:31:49.973Z,17.83
2022-08-21T07:34:20.205Z,17.92
2022-08-21T07:36:49.725Z,17.99
2022-08-21T07:39:19.225Z,18.08
2022-08-21T07:41:50.076Z,18.22
2022-08-21T07:44:19.721Z,18.34
2022-08-21T07:46:53.070Z,18.42
2022-08-21T07:49:22.652Z,18.50
2022-08-21T07:51:52.808Z,18.55
2022-08-21T07:54:33.516Z,18.61
2022-08-21T07:57:05.871Z,18.60
2022-08-21T07:59:35.408Z,18.66
2022-08-21T08:02:05.257Z,18.78
2022-08-21T08:04:34.813Z,18.86
2022-08-21T08:07:04.724Z,18.96
2022-08-21T08:09:34.243Z,19.07
2022-08-21T08:12:06.356Z,19.15
2022-08-21T08:14:35.915Z,19.24
2022-08-21T08:17:05.747Z,19.28
2022-08-21T08:19:35.234Z,19.32
2022-08-21T08:22:16.193Z,19.35
2022-08-21T08:24:45.871Z,19.50
2022-08-21T08:27:17.317Z,19.53
2022-08-21T08:29:47.125Z,19.65
2022-08-21T08:32:17.413Z,19.74
2022-08-21T08:34:47.771Z,19.85
2022-08-21T08:37:17.731Z,19.97
2022-08-21T08:39:47.692Z,20.09
2022-08-21T08:42:32.714Z,20.20
2022-08-21T08:45:10.093Z,20.29
2022-08-21T08:47:45.432Z,20.35
2022-08-21T08:50:22.312Z,20.39
2022-08-21T08:52:59.760Z,20.49
2022-08-21T08:55:36.836Z,20.52
2022-08-21T08:58:08.456Z,20.54
2022-08-21T09:00:40.520Z,20.55
2022-08-21T09:03:10.032Z,20.62
2022-08-21T09:05:48.173Z,20.57
2022-08-21T09:08:42.873Z,20.58
2022-08-21T09:11:23.636Z,20.73
2022-08-21T09:14:09.128Z,20.89
2022-08-21T09:16:50.222Z,21.09
2022-08-21T09:19:44.497Z,21.08
2022-08-21T09:22:25.020Z,20.93
2022-08-21T09:25:08.816Z,20.82
2022-08-21T09:27:38.665Z,20.78
2022-08-21T09:30:13.080Z,20.82
2022-08-21T09:32:43.441Z,20.77
2022-08-21T09:35:18.354Z,20.83
2022-08-21T09:37:55.653Z,20.93
2022-08-21T09:40:37.774Z,21.13
2022-08-21T09:43:19.068Z,21.40
2022-08-21T09:46:04.685Z,21.63
2022-08-21T09:48:48.765Z,21.86
2022-08-21T09:51:25.711Z,22.01
2022-08-21T09:54:00.276Z,21.91
2022-08-21T09:56:53.104Z,21.90
2022-08-21T09:59:36.446Z,21.88
2022-08-21T10:02:32.909Z,21.77
2022-08-21T10:05:17.801Z,21.72
2022-08-21T10:07:47.496Z,21.67
2022-08-21T10:10:23.216Z,21.59
2022-08-21T10:13:00.669Z,21.58
2022-08-21T10:15:44.102Z,21.54
2022-08-21T10:18:26.540Z,21.60
2022-08-21T10:21:11.350Z,21.85
2022-08-21T10:24:00.945Z,22.22
2022-08-21T10:26:54.652Z,22.47
2022-08-21T10:29:47.570Z,22.49
2022-08-21T10:32:29.631Z,22.44
2022-08-21T10:35:13.062Z,22.56
2022-08-21T10:38:02.964Z,22.76
2022-08-21T10:40:42.988Z,23.09
2022-08-21T10:43:27.174Z,23.17
2022-08-21T10:46:09.449Z,23.01
2022-08-21T10:48:49.349Z,22.70
2022-08-21T10:51:32.911Z,22.46
2022-08-21T10:54:18.185Z,22.45
2022-08-21T10:57:01.888Z,22.42
2022-08-21T10:59:47.986Z,22.65
2022-08-21T11:02:29.861Z,22.94
2022-08-21T11:05:07.821Z,23.33
2022-08-21T11:07:46.157Z,23.60
2022-08-21T11:10:27.480Z,23.80
2022-08-21T11:13:08.086Z,23.94
2022-08-21T11:15:50.257Z,24.21
2022-08-21T11:18:28.706Z,24.52
2022-08-21T11:21:37.032Z,24.86
2022-08-21T11:24:27.172Z,24.90
2022-08-21T11:27:09.628Z,24.75
2022-08-21T11:29:42.062Z,24.41
2022-08-21T11:33:00.269Z,23.91
2022-08-21T11:36:05.182Z,23.67
2022-08-21T11:38:42.759Z,23.52
2022-08-21T11:41:30.634Z,23.36
2022-08-21T11:44:14.021Z,23.29
2022-08-21T11:47:02.113Z,23.28
2022-08-21T11:50:34.020Z,23.68
2022-08-21T11:53:13.994Z,24.31
2022-08-21T11:55:50.995Z,24.90
2022-08-21T11:58:30.001Z,25.36
2022-08-21T12:01:08.858Z,25.75
2022-08-21T12:03:43.614Z,25.71
2022-08-21T12:06:24.089Z,25.49
2022-08-21T12:09:03.346Z,25.20
2022-08-21T12:11:33.900Z,24.89
2022-08-21T12:14:18.386Z,24.57
2022-08-21T12:16:52.094Z,24.38
2022-08-21T12:19:33.977Z,24.48
2022-08-21T12:22:14.284Z,24.96
2022-08-21T12:24:47.881Z,25.44
2022-08-21T12:27:29.480Z,25.83
2022-08-21T12:30:20.232Z,26.23
2022-08-21T12:33:03.789Z,26.28
2022-08-21T12:35:43.475Z,26.03
2022-08-21T12:38:21.140Z,25.66
2022-08-21T12:40:58.219Z,25.16
2022-08-21T12:43:37.137Z,24.82
2022-08-21T12:46:08.738Z,24.95
2022-08-21T12:48:49.211Z,25.48
2022-08-21T12:51:28.014Z,25.95
2022-08-21T12:54:01.174Z,26.36
2022-08-21T12:56:35.377Z,26.78
2022-08-21T12:59:14.712Z,27.23
2022-08-21T13:01:53.563Z,27.64
2022-08-21T13:04:35.315Z,27.96
2022-08-21T13:07:33.133Z,28.07
2022-08-21T13:10:09.542Z,28.03
2022-08-21T13:12:39.248Z,28.26
2022-08-21T13:15:10.606Z,28.49
2022-08-21T13:17:49.370Z,28.79
2022-08-21T13:20:35.628Z,29.06
2022-08-21T13:23:23.472Z,29.06
2022-08-21T13:25:53.126Z,29.29
2022-08-21T13:28:23.781Z,29.05
2022-08-21T13:30:56.969Z,28.93
2022-08-21T13:33:37.333Z,29.14
2022-08-21T13:36:16.234Z,29.32
2022-08-21T13:38:48.415Z,28.62
2022-08-21T13:41:28.419Z,28.04
2022-08-21T13:44:02.214Z,27.34
2022-08-21T13:46:56.293Z,26.69
2022-08-21T13:53:01.901Z,25.66
2022-08-21T13:55:44.474Z,25.73
2022-08-21T13:58:14.222Z,26.45
2022-08-21T14:00:51.404Z,27.24
2022-08-21T14:03:35.398Z,27.80
2022-08-21T14:06:15.301Z,28.52
2022-08-21T14:08:51.825Z,29.03
2022-08-21T14:11:22.021Z,29.57
2022-08-21T14:14:01.118Z,30.09
2022-08-21T14:16:45.859Z,29.76
2022-08-21T14:19:24.699Z,29.26
2022-08-21T14:21:56.518Z,29.22
2022-08-21T14:24:32.122Z,28.69
2022-08-21T14:27:09.188Z,28.07
2022-08-21T14:29:43.968Z,27.68
2022-08-21T14:32:24.622Z,27.52
2022-08-21T14:34:55.428Z,27.99
2022-08-21T14:37:30.285Z,28.62
2022-08-21T14:40:00.015Z,28.90
2022-08-21T14:42:30.667Z,29.31
2022-08-21T14:45:13.161Z,29.35
2022-08-21T14:47:43.570Z,29.25
2022-08-21T14:50:14.879Z,29.63
2022-08-21T14:52:46.603Z,29.97
2022-08-21T14:55:18.678Z,29.86
2022-08-21T14:57:53.041Z,30.04
2022-08-21T15:00:36.225Z,30.27
2022-08-21T15:03:06.202Z,30.35
2022-08-21T15:05:35.776Z,30.44
2022-08-21T15:08:06.833Z,30.49
2022-08-21T15:10:52.382Z,30.71
2022-08-21T15:13:27.464Z,30.56
2022-08-21T15:16:02.385Z,30.45
2022-08-21T15:18:34.325Z,30.42
2022-08-21T15:21:03.851Z,30.18
2022-08-21T15:23:34.695Z,30.02
2022-08-21T15:26:29.399Z,30.06
2022-08-21T15:28:59.259Z,30.07
2022-08-21T15:31:30.669Z,29.98
2022-08-21T15:34:00.190Z,29.70
2022-08-21T15:36:57.053Z,29.54
2022-08-21T15:39:31.101Z,29.39
2022-08-21T15:42:27.636Z,29.26
2022-08-21T15:44:58.413Z,29.08
2022-08-21T15:47:34.350Z,28.83
2022-08-21T15:50:07.149Z,28.51
2022-08-21T15:52:38.007Z,28.34
2022-08-21T15:55:11.072Z,28.05
2022-08-21T15:57:57.222Z,27.88
2022-08-21T16:00:28.968Z,27.72
2022-08-21T16:03:01.691Z,27.62
2022-08-21T16:05:32.734Z,27.43
2022-08-21T16:08:03.727Z,27.25
2022-08-21T16:10:37.319Z,27.13
2022-08-21T16:13:14.434Z,26.88
2022-08-21T16:15:44.074Z,26.71
2022-08-21T16:18:13.689Z,26.56
2022-08-21T16:20:43.351Z,26.47
2022-08-21T16:23:12.959Z,26.29
2022-08-21T16:25:45.667Z,26.14
2022-08-21T16:28:19.474Z,25.94
2022-08-21T16:30:52.112Z,25.82
2022-08-21T16:33:30.162Z,25.71
2022-08-21T16:36:00.330Z,25.56
2022-08-21T16:38:32.532Z,25.35
2022-08-21T16:41:03.547Z,25.09
2022-08-21T16:43:36.733Z,24.94
2022-08-21T16:46:12.374Z,24.64
2022-08-21T16:48:44.843Z,24.44
2022-08-21T16:51:32.694Z,24.26
2022-08-21T16:54:02.930Z,24.12
2022-08-21T16:56:35.196Z,23.99
2022-08-21T16:59:06.318Z,23.89
2022-08-21T17:01:37.009Z,23.78
2022-08-21T17:04:06.949Z,23.69
2022-08-21T17:06:36.603Z,23.60
2022-08-21T17:09:06.433Z,23.50
2022-08-21T17:11:42.988Z,23.39
2022-08-21T17:14:20.587Z,23.30
2022-08-21T17:16:55.107Z,23.17
2022-08-21T17:19:25.364Z,23.08
2022-08-21T17:32:31.838Z,22.59
2022-08-21T18:19:49.127Z,19.45
2022-08-21T18:22:18.919Z,19.24
2022-08-21T18:24:48.803Z,19.09
2022-08-21T18:27:18.887Z,18.90
2022-08-21T18:29:58.619Z,18.81
2022-08-21T18:32:31.744Z,18.71
2022-08-21T18:35:05.635Z,18.59
2022-08-21T18:37:35.452Z,18.42
2022-08-21T20:00:39.114Z,15.24
2022-08-21T20:03:13.657Z,15.17
